createdAt,value
2023-05-08T00:00:10.421Z,7.90
2023-05-08T00:02:38.269Z,7.67
2023-05-08T00:05:07.789Z,9.30
2023-05-08T00:07:37.106Z,9.00
2023-05-08T00:10:05.639Z,8.37
2023-05-08T00:12:33.653Z,8.93
2023-05-08T00:15:01.504Z,8.15
2023-05-08T00:17:29.270Z,9.65
2023-05-08T00:19:57.068Z,9.10
2023-05-08T00:22:24.771Z,9.63
2023-05-08T00:24:53.764Z,8.33
2023-05-08T00:27:21.397Z,7.03
2023-05-08T00:29:49.839Z,8.07
2023-05-08T00:32:17.651Z,8.93
2023-05-08T00:34:45.449Z,8.20
2023-05-08T00:37:13.234Z,9.00
2023-05-08T00:39:41.001Z,8.23
2023-05-08T00:42:10.087Z,9.32
2023-05-08T00:44:39.477Z,9.47
2023-05-08T00:47:07.398Z,8.40
2023-05-08T00:49:35.886Z,7.25
2023-05-08T00:52:08.515Z,6.80
2023-05-08T00:54:37.397Z,7.63
2023-05-08T00:57:07.549Z,8.20
2023-05-08T00:59:37.825Z,8.50
2023-05-08T01:02:06.446Z,7.77
2023-05-08T01:07:03.104Z,7.10
2023-05-08T01:09:30.814Z,9.18
2023-05-08T01:12:09.601Z,18.57
2023-05-08T01:14:52.382Z,12.90
2023-05-08T01:17:30.904Z,10.90
2023-05-08T01:23:02.574Z,11.53
2023-05-08T01:25:55.715Z,12.20
2023-05-08T01:28:56.497Z,11.53
2023-05-08T01:31:42.977Z,14.43
2023-05-08T01:34:20.958Z,13.30
2023-05-08T01:36:53.477Z,13.75
2023-05-08T01:39:25.773Z,12.97
2023-05-08T01:41:59.913Z,14.87
2023-05-08T01:44:34.894Z,12.13
2023-05-08T01:47:07.843Z,14.67
2023-05-08T01:49:41.350Z,13.90
2023-05-08T01:52:14.842Z,13.60
2023-05-08T01:54:48.086Z,14.30
2023-05-08T01:57:18.007Z,12.67
2023-05-08T01:59:47.165Z,19.23
2023-05-08T02:02:16.191Z,15.80
2023-05-08T02:04:46.233Z,14.30
2023-05-08T02:07:13.945Z,14.93
2023-05-08T02:09:43.827Z,13.73
2023-05-08T02:12:13.408Z,15.80
2023-05-08T02:14:43.131Z,13.43
2023-05-08T02:17:13.490Z,13.60
2023-05-08T02:19:42.039Z,14.97
2023-05-08T02:22:12.038Z,14.52
2023-05-08T02:24:40.687Z,13.13
2023-05-08T02:29:38.880Z,14.00
2023-05-08T02:32:09.227Z,14.20
2023-05-08T02:34:40.951Z,13.07
2023-05-08T02:37:15.637Z,14.47
2023-05-08T02:39:44.975Z,14.63
2023-05-08T02:42:12.877Z,12.93
2023-05-08T02:44:40.731Z,10.63
2023-05-08T02:47:20.794Z,14.60
2023-05-08T02:49:53.205Z,13.23
2023-05-08T02:52:29.697Z,14.10
2023-05-08T02:55:01.126Z,11.67
2023-05-08T02:57:37.228Z,12.97
2023-05-08T03:00:09.120Z,13.37
2023-05-08T03:02:41.323Z,12.40
2023-05-08T03:05:16.484Z,12.80
2023-05-08T03:07:48.346Z,12.30
2023-05-08T03:10:17.111Z,13.93
2023-05-08T03:12:47.730Z,13.10
2023-05-08T03:15:20.393Z,10.93
2023-05-08T03:17:51.866Z,11.63
2023-05-08T03:20:21.990Z,11.33
2023-05-08T03:22:54.319Z,11.87
2023-05-08T03:25:22.931Z,11.67
2023-05-08T03:27:52.843Z,13.38
2023-05-08T03:30:21.943Z,10.33
2023-05-08T03:32:52.341Z,11.47
2023-05-08T03:35:21.275Z,11.93
2023-05-08T03:37:49.034Z,12.20
2023-05-08T03:40:18.394Z,16.45
2023-05-08T03:42:46.600Z,17.03
2023-05-08T03:45:15.497Z,19.58
2023-05-08T03:47:44.635Z,16.03
2023-05-08T03:50:12.743Z,16.60
2023-05-08T03:52:40.643Z,21.55
2023-05-08T03:55:09.484Z,18.73
2023-05-08T03:57:51.404Z,20.43
2023-05-08T04:00:30.272Z,19.03
2023-05-08T04:03:12.119Z,16.03
2023-05-08T04:05:48.035Z,15.73
2023-05-08T04:08:20.972Z,16.03
2023-05-08T04:10:54.632Z,23.60
2023-05-08T04:13:28.718Z,19.17
2023-05-08T04:16:08.368Z,19.60
2023-05-08T04:18:45.129Z,21.37
2023-05-08T04:21:16.089Z,15.43
2023-05-08T04:23:46.175Z,15.67
2023-05-08T04:26:17.477Z,13.93
2023-05-08T04:28:47.463Z,16.67
2023-05-08T04:31:16.674Z,21.03
2023-05-08T04:33:45.588Z,15.63
2023-05-08T04:36:14.256Z,15.53
2023-05-08T04:41:09.819Z,13.35
2023-05-08T04:43:38.219Z,17.85
2023-05-08T04:46:07.877Z,16.10
2023-05-08T04:48:35.770Z,14.27
2023-05-08T04:51:03.560Z,16.77
2023-05-08T04:53:31.225Z,14.07
2023-05-08T04:55:59.340Z,18.27
2023-05-08T04:58:28.897Z,15.27
2023-05-08T05:00:56.669Z,19.23
2023-05-08T05:03:25.867Z,15.03
2023-05-08T05:05:58.820Z,17.07
2023-05-08T05:08:26.797Z,19.93
2023-05-08T05:10:54.709Z,16.30
2023-05-08T05:13:22.544Z,19.00
2023-05-08T05:15:51.447Z,22.45
2023-05-08T05:18:19.559Z,15.47
2023-05-08T05:20:48.622Z,19.02
2023-05-08T05:23:16.521Z,21.37
2023-05-08T05:25:44.364Z,18.80
2023-05-08T05:28:12.036Z,16.13
2023-05-08T05:30:39.876Z,17.27
2023-05-08T05:33:07.702Z,21.17
2023-05-08T05:35:35.575Z,21.10
2023-05-08T05:38:05.431Z,23.05
2023-05-08T05:40:33.071Z,25.07
2023-05-08T05:43:00.874Z,29.85
2023-05-08T05:45:29.787Z,35.67
2023-05-08T05:47:58.392Z,29.83
2023-05-08T05:50:28.230Z,21.90
2023-05-08T05:52:55.943Z,20.20
2023-05-08T05:55:25.201Z,25.50
2023-05-08T05:57:52.810Z,22.53
2023-05-08T06:00:21.590Z,30.77
2023-05-08T06:02:49.932Z,36.67
2023-05-08T06:05:19.162Z,26.15
2023-05-08T06:07:47.427Z,36.87
2023-05-08T06:10:15.116Z,36.42
2023-05-08T06:12:44.331Z,35.17
2023-05-08T06:15:14.843Z,28.57
2023-05-08T06:17:42.785Z,28.17
2023-05-08T06:20:10.771Z,32.90
2023-05-08T06:22:40.132Z,34.63
2023-05-08T06:25:09.684Z,24.47
2023-05-08T06:27:37.667Z,43.13
2023-05-08T06:30:10.543Z,41.78
2023-05-08T06:32:38.406Z,39.50
2023-05-08T06:35:07.005Z,36.80
2023-05-08T06:40:11.677Z,37.77
2023-05-08T06:42:40.511Z,25.65
2023-05-08T06:45:10.825Z,28.90
2023-05-08T06:47:38.775Z,41.63
2023-05-08T06:50:07.677Z,31.95
2023-05-08T06:52:35.527Z,35.37
2023-05-08T06:55:03.389Z,37.00
2023-05-08T06:57:31.348Z,32.63
2023-05-08T06:59:58.986Z,33.08
2023-05-08T07:02:28.035Z,35.93
2023-05-08T07:04:55.770Z,33.83
2023-05-08T07:07:23.575Z,31.95
2023-05-08T07:09:51.354Z,32.77
2023-05-08T07:12:19.055Z,30.85
2023-05-08T07:14:46.730Z,35.75
2023-05-08T07:17:14.423Z,34.53
2023-05-08T07:19:43.359Z,36.13
2023-05-08T07:22:11.132Z,32.53
2023-05-08T07:24:38.793Z,31.63
2023-05-08T07:27:06.450Z,36.47
2023-05-08T07:29:35.867Z,35.33
2023-05-08T07:32:03.643Z,33.27
2023-05-08T07:34:31.339Z,33.55
2023-05-08T07:37:00.372Z,32.27
2023-05-08T07:39:28.116Z,31.63
2023-05-08T07:41:55.886Z,32.50
2023-05-08T07:44:23.592Z,31.70
2023-05-08T07:46:51.576Z,34.83
2023-05-08T07:49:19.462Z,34.88
2023-05-08T07:51:47.209Z,36.40
2023-05-08T07:54:16.416Z,39.00
2023-05-08T07:56:44.041Z,36.13
2023-05-08T07:59:11.708Z,38.20
2023-05-08T08:01:39.668Z,37.97
2023-05-08T08:04:07.680Z,37.70
2023-05-08T08:06:35.466Z,37.45
2023-05-08T08:09:03.223Z,36.28
2023-05-08T08:11:32.443Z,40.50
2023-05-08T08:14:00.178Z,40.73
2023-05-08T08:16:27.927Z,38.22
2023-05-08T08:18:55.724Z,41.63
2023-05-08T08:21:23.426Z,38.45
2023-05-08T08:23:51.175Z,38.60
2023-05-08T08:26:18.809Z,39.50
2023-05-08T08:28:47.860Z,38.72
2023-05-08T08:31:16.444Z,38.90
2023-05-08T08:36:14.896Z,36.73
2023-05-08T08:38:42.831Z,41.35
2023-05-08T08:41:10.531Z,41.60
2023-05-08T08:43:43.176Z,40.67
2023-05-08T08:46:14.695Z,39.47
2023-05-08T08:48:45.512Z,41.93
2023-05-08T08:51:19.547Z,42.47
2023-05-08T08:53:54.212Z,39.10
2023-05-08T08:56:24.723Z,40.17
2023-05-08T08:58:59.213Z,40.53
2023-05-08T09:01:31.087Z,43.05
2023-05-08T09:03:59.812Z,42.08
2023-05-08T09:06:28.821Z,41.38
2023-05-08T09:08:57.827Z,43.43
2023-05-08T09:11:25.840Z,42.00
2023-05-08T09:13:53.658Z,42.85
2023-05-08T09:16:21.459Z,45.30
2023-05-08T09:18:50.691Z,43.67
2023-05-08T09:21:18.499Z,44.70
2023-05-08T09:24:07.405Z,45.10
2023-05-08T09:26:36.912Z,46.30
2023-05-08T09:29:15.388Z,46.15
2023-05-08T09:34:23.651Z,49.15
2023-05-08T09:36:51.795Z,54.83
2023-05-08T09:39:23.876Z,56.42
2023-05-08T09:41:59.181Z,56.88
2023-05-08T09:44:26.891Z,63.25
2023-05-08T09:47:11.047Z,67.88
2023-05-08T09:49:40.671Z,69.10
2023-05-08T09:52:08.783Z,64.22
2023-05-08T09:54:36.650Z,66.93
2023-05-08T09:57:14.092Z,63.53
2023-05-08T09:59:41.834Z,67.70
2023-05-08T10:02:16.253Z,68.65
2023-05-08T10:04:45.825Z,67.05
2023-05-08T10:07:13.740Z,67.45
2023-05-08T10:09:50.373Z,61.50
2023-05-08T10:12:19.721Z,61.95
2023-05-08T10:14:47.527Z,64.63
2023-05-08T10:17:20.470Z,63.47
2023-05-08T10:19:53.204Z,63.35
2023-05-08T10:22:23.611Z,63.88
2023-05-08T10:24:56.878Z,64.50
2023-05-08T10:27:32.138Z,62.75
2023-05-08T10:30:04.132Z,59.70
2023-05-08T10:32:40.561Z,59.05
2023-05-08T10:35:13.069Z,61.95
2023-05-08T10:37:42.174Z,59.78
2023-05-08T10:40:12.168Z,61.55
2023-05-08T10:42:40.954Z,59.78
2023-05-08T10:48:00.687Z,63.83
2023-05-08T10:50:56.555Z,64.63
2023-05-08T10:53:33.137Z,62.33
2023-05-08T10:56:01.312Z,63.80
2023-05-08T10:58:34.034Z,62.90
2023-05-08T11:01:18.325Z,60.10
2023-05-08T11:03:51.562Z,58.70
2023-05-08T11:06:46.562Z,61.75
2023-05-08T11:09:22.250Z,59.70
2023-05-08T11:12:05.134Z,62.53
2023-05-08T11:14:33.534Z,57.38
2023-05-08T11:17:08.883Z,57.70
2023-05-08T11:19:38.348Z,60.17
2023-05-08T11:22:24.876Z,61.65
2023-05-08T11:24:58.053Z,59.38
2023-05-08T11:27:37.799Z,63.17
2023-05-08T11:30:26.762Z,61.42
2023-05-08T11:33:14.335Z,60.80
2023-05-08T11:35:52.739Z,66.20
2023-05-08T11:41:02.663Z,56.75
2023-05-08T11:44:09.669Z,57.13
2023-05-08T11:46:41.707Z,55.33
2023-05-08T11:49:14.329Z,53.95
2023-05-08T11:51:44.806Z,51.90
2023-05-08T11:54:17.137Z,55.42
2023-05-08T11:56:47.884Z,49.38
2023-05-08T11:59:16.320Z,46.13
2023-05-08T12:01:48.584Z,46.72
2023-05-08T12:04:24.558Z,49.10
2023-05-08T12:06:58.695Z,50.25
2023-05-08T12:09:28.023Z,45.78
2023-05-08T12:11:58.620Z,46.97
2023-05-08T12:14:26.456Z,47.25
2023-05-08T12:16:54.241Z,47.70
2023-05-08T12:19:21.895Z,45.47
2023-05-08T12:21:50.093Z,46.97
2023-05-08T12:24:23.173Z,48.20
2023-05-08T12:26:55.739Z,46.15
2023-05-08T12:29:29.077Z,44.67
2023-05-08T12:31:56.914Z,44.33
2023-05-08T12:34:25.077Z,43.22
2023-05-08T12:37:02.984Z,44.22
2023-05-08T12:39:36.751Z,45.90
2023-05-08T12:42:06.039Z,46.78
2023-05-08T12:44:33.780Z,46.20
2023-05-08T12:47:01.545Z,44.15
2023-05-08T12:49:31.018Z,37.83
2023-05-08T12:52:06.535Z,37.55
2023-05-08T12:54:38.707Z,35.38
2023-05-08T12:57:15.124Z,37.47
2023-05-08T12:59:44.132Z,35.05
2023-05-08T13:02:16.948Z,33.38
2023-05-08T13:04:45.409Z,31.52
2023-05-08T13:09:41.312Z,32.42
2023-05-08T13:14:37.926Z,30.13
2023-05-08T13:17:06.447Z,29.58
2023-05-08T13:19:34.118Z,30.95
2023-05-08T13:22:01.763Z,29.45
2023-05-08T13:24:29.530Z,30.85
2023-05-08T13:26:57.262Z,29.15
2023-05-08T13:29:25.035Z,27.98
2023-05-08T13:31:54.265Z,26.38
2023-05-08T13:34:21.950Z,21.80
2023-05-08T13:36:50.827Z,24.15
2023-05-08T13:39:18.768Z,26.45
2023-05-08T13:41:46.859Z,24.33
2023-05-08T13:44:14.559Z,26.80
2023-05-08T13:46:42.190Z,29.80
2023-05-08T13:49:11.519Z,27.50
2023-05-08T13:51:39.286Z,25.45
2023-05-08T13:54:07.070Z,24.23
2023-05-08T13:56:35.183Z,23.23
2023-05-08T13:59:02.957Z,23.05
2023-05-08T14:01:30.804Z,22.60
2023-05-08T14:03:58.665Z,22.13
2023-05-08T14:06:27.913Z,21.20
2023-05-08T14:08:57.160Z,23.52
2023-05-08T14:11:25.510Z,23.30
2023-05-08T14:13:53.320Z,22.15
2023-05-08T14:16:21.100Z,21.80
2023-05-08T14:18:49.089Z,23.63
2023-05-08T14:21:16.835Z,23.45
2023-05-08T14:23:46.013Z,23.13
2023-05-08T14:26:13.814Z,22.65
2023-05-08T14:28:41.668Z,24.27
2023-05-08T14:31:09.318Z,23.30
2023-05-08T14:33:37.123Z,23.42
2023-05-08T14:36:05.081Z,23.85
2023-05-08T14:38:32.900Z,21.58
2023-05-08T14:41:04.657Z,20.58
2023-05-08T14:43:32.816Z,19.77
2023-05-08T14:46:00.640Z,22.02
2023-05-08T14:48:28.556Z,23.33
2023-05-08T14:50:57.496Z,23.52
2023-05-08T14:53:25.433Z,22.38
2023-05-08T14:55:53.634Z,22.73
2023-05-08T15:00:50.617Z,23.30
2023-05-08T15:03:18.695Z,25.17
2023-05-08T15:05:47.200Z,23.23
2023-05-08T15:08:15.193Z,24.35
2023-05-08T15:10:42.915Z,23.85
2023-05-08T15:13:10.663Z,23.83
2023-05-08T15:15:39.669Z,23.77
2023-05-08T15:18:07.420Z,24.00
2023-05-08T15:20:35.138Z,26.35
2023-05-08T15:23:02.983Z,27.13
2023-05-08T15:25:30.776Z,25.77
2023-05-08T15:28:00.718Z,25.45
2023-05-08T15:30:28.858Z,27.30
2023-05-08T15:32:58.051Z,27.67
2023-05-08T15:35:25.869Z,27.38
2023-05-08T15:37:53.550Z,27.33
2023-05-08T15:40:21.319Z,28.50
2023-05-08T15:42:49.001Z,30.35
2023-05-08T15:45:16.871Z,31.38
2023-05-08T15:47:44.691Z,30.33
2023-05-08T15:50:14.474Z,31.35
2023-05-08T15:52:42.398Z,32.42
2023-05-08T15:55:11.142Z,34.70
2023-05-08T15:57:39.044Z,36.25
2023-05-08T16:00:08.180Z,35.08
2023-05-08T16:02:36.009Z,37.22
2023-05-08T16:05:04.290Z,40.25
2023-05-08T16:07:33.284Z,40.17
2023-05-08T16:10:01.035Z,37.45
2023-05-08T16:12:28.729Z,36.25
2023-05-08T16:14:56.566Z,33.45
2023-05-08T16:17:24.355Z,33.58
2023-05-08T16:19:52.077Z,29.35
2023-05-08T16:22:19.807Z,30.98
2023-05-08T16:24:48.985Z,30.00
2023-05-08T16:27:16.680Z,29.15
2023-05-08T16:29:44.525Z,29.83
2023-05-08T16:32:12.463Z,29.00
2023-05-08T16:34:40.381Z,29.55
2023-05-08T16:37:08.049Z,29.88
2023-05-08T16:39:35.786Z,32.35
2023-05-08T16:42:06.258Z,34.40
2023-05-08T16:44:34.554Z,31.15
2023-05-08T16:47:02.446Z,32.90
2023-05-08T16:49:30.263Z,33.00
2023-05-08T16:51:58.969Z,33.00
2023-05-08T16:54:26.716Z,33.10
2023-05-08T16:56:54.483Z,37.45
2023-05-08T16:59:23.643Z,37.60
2023-05-08T17:01:51.625Z,37.60
2023-05-08T17:04:19.382Z,42.22
2023-05-08T17:06:47.042Z,41.30
2023-05-08T17:09:14.757Z,38.03
2023-05-08T17:11:42.543Z,40.17
2023-05-08T17:14:10.295Z,40.17
2023-05-08T17:16:39.706Z,40.42
2023-05-08T17:19:08.363Z,38.42
2023-05-08T17:21:36.223Z,35.53
2023-05-08T17:24:03.966Z,40.53
2023-05-08T17:26:33.472Z,37.53
2023-05-08T17:29:01.356Z,42.30
2023-05-08T17:31:29.055Z,44.85
2023-05-08T17:33:58.192Z,44.75
2023-05-08T17:36:25.994Z,44.20
2023-05-08T17:38:53.777Z,38.80
2023-05-08T17:41:22.981Z,43.40
2023-05-08T17:43:50.815Z,40.65
2023-05-08T17:46:18.542Z,45.25
2023-05-08T17:48:46.385Z,43.47
2023-05-08T17:51:15.676Z,43.30
2023-05-08T17:53:43.467Z,42.90
2023-05-08T17:56:11.144Z,42.65
2023-05-08T17:58:38.943Z,44.00
2023-05-08T18:01:07.641Z,43.55
2023-05-08T18:03:36.099Z,43.40
2023-05-08T18:06:03.896Z,43.05
2023-05-08T18:08:34.593Z,40.50
2023-05-08T18:11:02.392Z,39.67
2023-05-08T18:13:30.589Z,41.22
2023-05-08T18:15:58.285Z,37.58
2023-05-08T18:18:26.388Z,37.60
2023-05-08T18:20:54.050Z,37.70
2023-05-08T18:23:22.199Z,37.95
2023-05-08T18:25:51.337Z,38.50
2023-05-08T18:28:19.020Z,36.50
2023-05-08T18:30:46.717Z,37.30
2023-05-08T18:33:14.368Z,38.70
2023-05-08T18:35:42.093Z,38.92
2023-05-08T18:38:09.775Z,36.50
2023-05-08T18:40:37.627Z,38.22
2023-05-08T18:43:06.749Z,36.47
2023-05-08T18:45:34.533Z,36.30
2023-05-08T18:48:02.298Z,36.55
2023-05-08T18:50:30.037Z,35.65
2023-05-08T18:52:59.782Z,36.58
2023-05-08T18:55:27.802Z,36.58
2023-05-08T18:57:55.593Z,38.75
2023-05-08T19:00:24.981Z,37.67
2023-05-08T19:02:52.866Z,37.33
2023-05-08T19:05:20.927Z,39.85
2023-05-08T19:07:48.904Z,38.20
2023-05-08T19:10:16.837Z,38.58
2023-05-08T19:12:45.583Z,37.10
2023-05-08T19:15:14.489Z,40.85
2023-05-08T19:17:43.830Z,39.97
2023-05-08T19:20:13.569Z,37.25
2023-05-08T19:22:41.721Z,35.90
2023-05-08T19:25:09.896Z,37.92
2023-05-08T19:27:37.635Z,39.65
2023-05-08T19:30:06.825Z,38.40
2023-05-08T19:32:34.569Z,38.75
2023-05-08T19:35:03.798Z,38.13
2023-05-08T19:38:04.542Z,36.78
2023-05-08T19:40:33.119Z,38.53
2023-05-08T19:43:06.404Z,39.75
2023-05-08T19:48:59.700Z,38.38
2023-05-08T19:55:19.956Z,37.63
2023-05-08T19:57:47.636Z,37.70
2023-05-08T20:00:22.865Z,40.30
2023-05-08T20:02:50.700Z,39.85
2023-05-08T20:05:31.356Z,39.30
2023-05-08T20:07:59.186Z,37.47
2023-05-08T20:10:36.655Z,40.97
2023-05-08T20:13:05.612Z,38.23
2023-05-08T20:15:33.500Z,38.55
2023-05-08T20:18:01.367Z,40.03
2023-05-08T20:20:29.804Z,42.65
2023-05-08T20:23:10.818Z,41.60
2023-05-08T20:30:08.477Z,42.45
2023-05-08T20:32:37.686Z,41.13
2023-05-08T20:35:05.992Z,41.13
2023-05-08T20:37:33.712Z,43.15
2023-05-08T20:40:04.663Z,41.45
2023-05-08T20:42:33.663Z,39.42
2023-05-08T20:45:01.402Z,38.97
2023-05-08T20:47:29.131Z,43.15
2023-05-08T20:49:58.723Z,39.83
2023-05-08T20:52:26.619Z,39.25
2023-05-08T20:54:54.462Z,40.15
2023-05-08T20:57:22.228Z,39.03
2023-05-08T20:59:49.984Z,38.50
2023-05-08T21:02:17.771Z,39.53
2023-05-08T21:04:45.509Z,41.28
2023-05-08T21:07:14.617Z,41.28
2023-05-08T21:09:42.359Z,42.38
2023-05-08T21:12:10.839Z,41.60
2023-05-08T21:14:38.488Z,40.47
2023-05-08T21:17:06.229Z,39.92
2023-05-08T21:19:33.946Z,38.90
2023-05-08T21:22:01.748Z,38.38
2023-05-08T21:24:30.988Z,39.78
2023-05-08T21:26:59.511Z,38.60
2023-05-08T21:29:27.321Z,39.65
2023-05-08T21:31:55.337Z,38.42
2023-05-08T21:34:23.135Z,36.42
2023-05-08T21:36:50.915Z,35.53
2023-05-08T21:39:18.713Z,34.10
2023-05-08T21:41:48.002Z,35.38
2023-05-08T21:44:15.954Z,35.40
2023-05-08T21:46:43.786Z,34.25
2023-05-08T22:05:59.496Z,29.93
2023-05-08T22:08:27.225Z,29.58
2023-05-08T22:10:54.911Z,29.83
2023-05-08T22:13:22.758Z,30.23
2023-05-08T22:15:50.923Z,28.92
2023-05-08T22:18:19.324Z,27.90
2023-05-08T22:20:48.487Z,28.95
2023-05-08T22:23:16.246Z,28.10
2023-05-08T22:25:44.641Z,28.50
2023-05-08T22:28:12.352Z,27.63
2023-05-08T22:30:42.346Z,26.88
2023-05-08T22:33:10.616Z,27.37
2023-05-08T22:35:38.471Z,27.05
2023-05-08T22:38:07.487Z,27.92
2023-05-08T22:40:35.353Z,25.90
2023-05-08T22:43:03.611Z,26.50
2023-05-08T22:45:34.490Z,28.95
2023-05-08T22:48:02.168Z,29.87
2023-05-08T22:50:29.916Z,29.10
2023-05-08T22:52:57.662Z,30.33
2023-05-08T22:55:28.848Z,29.92
2023-05-08T22:57:56.560Z,27.77
2023-05-08T23:00:24.357Z,27.93
2023-05-08T23:02:52.223Z,29.10
2023-05-08T23:05:20.064Z,28.80
2023-05-08T23:07:47.813Z,27.52
2023-05-08T23:10:15.996Z,29.50
2023-05-08T23:12:45.177Z,29.40
2023-05-08T23:15:14.417Z,29.47
2023-05-08T23:17:42.412Z,31.23
2023-05-08T23:20:10.989Z,29.23
2023-05-08T23:22:38.649Z,30.42
2023-05-08T23:25:07.428Z,27.87
2023-05-08T23:27:35.109Z,30.20
2023-05-08T23:30:04.639Z,30.47
2023-05-08T23:32:32.437Z,32.50
2023-05-08T23:35:00.220Z,28.40
2023-05-08T23:37:27.872Z,28.63
2023-05-08T23:39:56.222Z,31.00
2023-05-08T23:42:23.892Z,32.85
2023-05-08T23:44:51.539Z,28.80
2023-05-08T23:47:22.399Z,31.53
2023-05-08T23:49:50.041Z,30.93
2023-05-08T23:52:18.157Z,33.60
2023-05-08T23:54:45.916Z,32.88
2023-05-08T23:57:13.558Z,32.17
2023-05-08T23:59:41.325Z,33.23
